sensor_id;sensor_type;location;lat;lon;timestamp;P1;durP1;ratioP1;P2;durP2;ratioP2
43509;SDS011;29105;57.764;40.952;2023-09-19T00:00:19;22.38;;;12.55;;
43509;SDS011;29105;57.764;40.952;2023-09-19T00:02:56;24.25;;;11.93;;
43509;SDS011;29105;57.764;40.952;2023-09-19T00:05:25;18.88;;;11.52;;
43509;SDS011;29105;57.764;40.952;2023-09-19T00:07:56;18.80;;;11.13;;
43509;SDS011;29105;57.764;40.952;2023-09-19T00:10:26;22.73;;;12.30;;
43509;SDS011;29105;57.764;40.952;2023-09-19T00:12:56;28.80;;;16.25;;
43509;SDS011;29105;57.764;40.952;2023-09-19T00:15:24;28.02;;;14.57;;
43509;SDS011;29105;57.764;40.952;2023-09-19T00:17:56;27.95;;;14.73;;
43509;SDS011;29105;57.764;40.952;2023-09-19T00:20:22;38.10;;;20.30;;
43509;SDS011;29105;57.764;40.952;2023-09-19T00:22:51;30.20;;;13.93;;
43509;SDS011;29105;57.764;40.952;2023-09-19T00:25:17;27.73;;;13.38;;
43509;SDS011;29105;57.764;40.952;2023-09-19T00:27:44;168.80;;;65.72;;
43509;SDS011;29105;57.764;40.952;2023-09-19T00:30:12;88.40;;;39.67;;
43509;SDS011;29105;57.764;40.952;2023-09-19T00:32:42;38.90;;;22.27;;
43509;SDS011;29105;57.764;40.952;2023-09-19T00:35:08;30.08;;;17.40;;
43509;SDS011;29105;57.764;40.952;2023-09-19T00:37:37;30.85;;;17.05;;
43509;SDS011;29105;57.764;40.952;2023-09-19T00:40:05;28.55;;;14.32;;
43509;SDS011;29105;57.764;40.952;2023-09-19T00:42:44;26.55;;;13.90;;
43509;SDS011;29105;57.764;40.952;2023-09-19T00:45:12;71.55;;;29.15;;
43509;SDS011;29105;57.764;40.952;2023-09-19T00:47:39;87.82;;;38.70;;
43509;SDS011;29105;57.764;40.952;2023-09-19T00:50:06;80.35;;;37.13;;
43509;SDS011;29105;57.764;40.952;2023-09-19T00:52:36;60.67;;;29.35;;
43509;SDS011;29105;57.764;40.952;2023-09-19T00:55:07;36.53;;;17.77;;
43509;SDS011;29105;57.764;40.952;2023-09-19T00:57:34;27.50;;;13.80;;
43509;SDS011;29105;57.764;40.952;2023-09-19T01:00:01;29.05;;;13.88;;
43509;SDS011;29105;57.764;40.952;2023-09-19T01:02:31;28.10;;;12.93;;
43509;SDS011;29105;57.764;40.952;2023-09-19T01:04:58;28.02;;;13.05;;
43509;SDS011;29105;57.764;40.952;2023-09-19T01:07:25;28.58;;;12.90;;
43509;SDS011;29105;57.764;40.952;2023-09-19T01:09:51;21.75;;;12.50;;
43509;SDS011;29105;57.764;40.952;2023-09-19T01:12:21;29.88;;;12.98;;
43509;SDS011;29105;57.764;40.952;2023-09-19T01:17:30;29.20;;;13.30;;
43509;SDS011;29105;57.764;40.952;2023-09-19T01:22:46;25.65;;;13.40;;
43509;SDS011;29105;57.764;40.952;2023-09-19T01:31:22;25.15;;;13.07;;
43509;SDS011;29105;57.764;40.952;2023-09-19T01:33:59;26.52;;;13.02;;
43509;SDS011;29105;57.764;40.952;2023-09-19T01:36:30;25.45;;;12.48;;
43509;SDS011;29105;57.764;40.952;2023-09-19T01:39:05;21.17;;;12.20;;
43509;SDS011;29105;57.764;40.952;2023-09-19T01:41:47;23.75;;;12.80;;
43509;SDS011;29105;57.764;40.952;2023-09-19T01:47:23;23.42;;;10.95;;
43509;SDS011;29105;57.764;40.952;2023-09-19T01:52:36;26.15;;;12.43;;
43509;SDS011;29105;57.764;40.952;2023-09-19T01:55:13;25.75;;;10.25;;
43509;SDS011;29105;57.764;40.952;2023-09-19T01:57:46;23.58;;;11.27;;
43509;SDS011;29105;57.764;40.952;2023-09-19T02:00:15;23.90;;;12.38;;
43509;SDS011;29105;57.764;40.952;2023-09-19T02:02:43;19.35;;;12.00;;
43509;SDS011;29105;57.764;40.952;2023-09-19T02:05:10;19.75;;;12.00;;
43509;SDS011;29105;57.764;40.952;2023-09-19T02:07:38;18.10;;;11.63;;
43509;SDS011;29105;57.764;40.952;2023-09-19T02:10:04;22.23;;;11.63;;
43509;SDS011;29105;57.764;40.952;2023-09-19T02:12:32;23.88;;;11.45;;
43509;SDS011;29105;57.764;40.952;2023-09-19T02:14:58;24.80;;;11.93;;
43509;SDS011;29105;57.764;40.952;2023-09-19T02:17:24;25.20;;;12.63;;
43509;SDS011;29105;57.764;40.952;2023-09-19T02:19:54;27.83;;;13.15;;
43509;SDS011;29105;57.764;40.952;2023-09-19T02:22:23;27.08;;;12.80;;
43509;SDS011;29105;57.764;40.952;2023-09-19T02:24:50;22.85;;;12.60;;
43509;SDS011;29105;57.764;40.952;2023-09-19T02:27:16;22.90;;;12.15;;
43509;SDS011;29105;57.764;40.952;2023-09-19T02:29:43;20.55;;;11.90;;
43509;SDS011;29105;57.764;40.952;2023-09-19T02:32:08;26.27;;;12.55;;
43509;SDS011;29105;57.764;40.952;2023-09-19T02:34:37;20.30;;;11.57;;
43509;SDS011;29105;57.764;40.952;2023-09-19T02:37:07;20.38;;;11.23;;
43509;SDS011;29105;57.764;40.952;2023-09-19T02:39:34;24.40;;;12.05;;
43509;SDS011;29105;57.764;40.952;2023-09-19T02:42:00;22.40;;;12.32;;
43509;SDS011;29105;57.764;40.952;2023-09-19T02:44:25;22.67;;;12.05;;
43509;SDS011;29105;57.764;40.952;2023-09-19T02:46:51;22.20;;;11.57;;
43509;SDS011;29105;57.764;40.952;2023-09-19T02:49:17;24.98;;;11.48;;
43509;SDS011;29105;57.764;40.952;2023-09-19T02:51:43;23.63;;;12.48;;
43509;SDS011;29105;57.764;40.952;2023-09-19T02:54:09;22.77;;;11.77;;
43509;SDS011;29105;57.764;40.952;2023-09-19T02:56:35;21.30;;;11.88;;
43509;SDS011;29105;57.764;40.952;2023-09-19T02:59:02;19.02;;;11.75;;
43509;SDS011;29105;57.764;40.952;2023-09-19T03:01:28;20.17;;;10.98;;
43509;SDS011;29105;57.764;40.952;2023-09-19T03:03:54;17.65;;;10.27;;
43509;SDS011;29105;57.764;40.952;2023-09-19T03:06:20;18.30;;;10.73;;
43509;SDS011;29105;57.764;40.952;2023-09-19T03:08:47;20.88;;;11.35;;
43509;SDS011;29105;57.764;40.952;2023-09-19T03:11:15;17.45;;;9.70;;
43509;SDS011;29105;57.764;40.952;2023-09-19T03:13:44;17.08;;;10.85;;
43509;SDS011;29105;57.764;40.952;2023-09-19T03:16:11;17.55;;;9.63;;
43509;SDS011;29105;57.764;40.952;2023-09-19T03:18:36;15.80;;;9.80;;
43509;SDS011;29105;57.764;40.952;2023-09-19T03:21:02;19.23;;;9.25;;
43509;SDS011;29105;57.764;40.952;2023-09-19T03:23:28;16.42;;;9.43;;
43509;SDS011;29105;57.764;40.952;2023-09-19T03:25:54;17.60;;;9.48;;
43509;SDS011;29105;57.764;40.952;2023-09-19T03:28:21;21.75;;;9.18;;
43509;SDS011;29105;57.764;40.952;2023-09-19T03:31:04;13.30;;;8.13;;
43509;SDS011;29105;57.764;40.952;2023-09-19T03:33:31;14.40;;;8.93;;
43509;SDS011;29105;57.764;40.952;2023-09-19T03:35:58;18.17;;;9.35;;
43509;SDS011;29105;57.764;40.952;2023-09-19T03:38:27;18.13;;;8.98;;
43509;SDS011;29105;57.764;40.952;2023-09-19T03:40:55;10.82;;;6.13;;
43509;SDS011;29105;57.764;40.952;2023-09-19T03:43:21;13.80;;;7.68;;
43509;SDS011;29105;57.764;40.952;2023-09-19T03:45:47;12.60;;;7.80;;
43509;SDS011;29105;57.764;40.952;2023-09-19T03:48:13;12.27;;;7.43;;
43509;SDS011;29105;57.764;40.952;2023-09-19T03:50:39;14.43;;;8.68;;
43509;SDS011;29105;57.764;40.952;2023-09-19T03:53:05;12.25;;;6.97;;
43509;SDS011;29105;57.764;40.952;2023-09-19T03:55:32;7.78;;;5.13;;
43509;SDS011;29105;57.764;40.952;2023-09-19T03:58:01;9.60;;;5.80;;
43509;SDS011;29105;57.764;40.952;2023-09-19T04:00:27;7.30;;;4.35;;
43509;SDS011;29105;57.764;40.952;2023-09-19T04:02:54;8.18;;;3.67;;
43509;SDS011;29105;57.764;40.952;2023-09-19T04:05:22;15.23;;;4.93;;
43509;SDS011;29105;57.764;40.952;2023-09-19T04:07:48;18.75;;;6.35;;
43509;SDS011;29105;57.764;40.952;2023-09-19T04:10:15;12.73;;;6.80;;
43509;SDS011;29105;57.764;40.952;2023-09-19T04:12:50;19.30;;;6.40;;
43509;SDS011;29105;57.764;40.952;2023-09-19T04:15:19;15.27;;;6.85;;
43509;SDS011;29105;57.764;40.952;2023-09-19T04:17:47;20.88;;;6.60;;
43509;SDS011;29105;57.764;40.952;2023-09-19T04:20:13;13.98;;;7.05;;
43509;SDS011;29105;57.764;40.952;2023-09-19T04:22:39;12.45;;;6.60;;
43509;SDS011;29105;57.764;40.952;2023-09-19T04:25:05;21.50;;;6.68;;
43509;SDS011;29105;57.764;40.952;2023-09-19T04:27:34;18.98;;;7.57;;
43509;SDS011;29105;57.764;40.952;2023-09-19T04:29:59;22.33;;;8.30;;
43509;SDS011;29105;57.764;40.952;2023-09-19T04:32:30;24.35;;;8.18;;
43509;SDS011;29105;57.764;40.952;2023-09-19T04:34:58;14.63;;;7.13;;
43509;SDS011;29105;57.764;40.952;2023-09-19T04:37:25;19.08;;;6.82;;
43509;SDS011;29105;57.764;40.952;2023-09-19T04:39:51;25.10;;;7.35;;
43509;SDS011;29105;57.764;40.952;2023-09-19T04:42:17;20.98;;;6.97;;
43509;SDS011;29105;57.764;40.952;2023-09-19T04:44:43;11.75;;;4.93;;
43509;SDS011;29105;57.764;40.952;2023-09-19T04:47:08;15.45;;;4.68;;
43509;SDS011;29105;57.764;40.952;2023-09-19T04:49:34;11.00;;;4.32;;
43509;SDS011;29105;57.764;40.952;2023-09-19T04:52:02;9.70;;;4.13;;
43509;SDS011;29105;57.764;40.952;2023-09-19T04:54:28;8.73;;;4.18;;
43509;SDS011;29105;57.764;40.952;2023-09-19T04:56:56;14.20;;;3.88;;
43509;SDS011;29105;57.764;40.952;2023-09-19T04:59:22;10.75;;;4.20;;
43509;SDS011;29105;57.764;40.952;2023-09-19T05:01:48;12.27;;;4.40;;
43509;SDS011;29105;57.764;40.952;2023-09-19T05:04:13;5.97;;;3.88;;
43509;SDS011;29105;57.764;40.952;2023-09-19T05:06:39;11.68;;;3.10;;
43509;SDS011;29105;57.764;40.952;2023-09-19T05:09:05;12.50;;;4.10;;
43509;SDS011;29105;57.764;40.952;2023-09-19T05:11:31;12.93;;;2.85;;
43509;SDS011;29105;57.764;40.952;2023-09-19T05:13:56;6.65;;;2.40;;
43509;SDS011;29105;57.764;40.952;2023-09-19T05:16:22;9.00;;;3.08;;
43509;SDS011;29105;57.764;40.952;2023-09-19T05:18:48;5.85;;;2.33;;
43509;SDS011;29105;57.764;40.952;2023-09-19T05:21:15;3.70;;;2.20;;
43509;SDS011;29105;57.764;40.952;2023-09-19T05:23:40;5.32;;;2.92;;
43509;SDS011;29105;57.764;40.952;2023-09-19T05:26:07;5.88;;;1.50;;
43509;SDS011;29105;57.764;40.952;2023-09-19T05:28:33;1.88;;;0.80;;
43509;SDS011;29105;57.764;40.952;2023-09-19T05:31:02;2.22;;;1.45;;
43509;SDS011;29105;57.764;40.952;2023-09-19T05:33:28;7.13;;;1.00;;
43509;SDS011;29105;57.764;40.952;2023-09-19T05:35:58;5.70;;;1.30;;
43509;SDS011;29105;57.764;40.952;2023-09-19T05:38:24;9.48;;;1.50;;
43509;SDS011;29105;57.764;40.952;2023-09-19T05:40:51;4.75;;;1.30;;
43509;SDS011;29105;57.764;40.952;2023-09-19T05:43:17;4.60;;;0.90;;
43509;SDS011;29105;57.764;40.952;2023-09-19T05:45:44;6.72;;;1.33;;
43509;SDS011;29105;57.764;40.952;2023-09-19T05:48:12;4.53;;;0.90;;
43509;SDS011;29105;57.764;40.952;2023-09-19T05:50:42;7.90;;;1.50;;
43509;SDS011;29105;57.764;40.952;2023-09-19T05:53:08;3.70;;;1.00;;
43509;SDS011;29105;57.764;40.952;2023-09-19T05:55:37;3.38;;;1.25;;
43509;SDS011;29105;57.764;40.952;2023-09-19T05:58:04;7.50;;;1.67;;
43509;SDS011;29105;57.764;40.952;2023-09-19T06:00:30;6.75;;;1.60;;
43509;SDS011;29105;57.764;40.952;2023-09-19T06:02:57;2.58;;;0.80;;
43509;SDS011;29105;57.764;40.952;2023-09-19T06:05:24;5.30;;;1.48;;
43509;SDS011;29105;57.764;40.952;2023-09-19T06:07:57;8.70;;;2.30;;
43509;SDS011;29105;57.764;40.952;2023-09-19T06:10:26;5.85;;;1.25;;
43509;SDS011;29105;57.764;40.952;2023-09-19T06:12:53;4.50;;;1.13;;
43509;SDS011;29105;57.764;40.952;2023-09-19T06:15:20;2.78;;;1.25;;
43509;SDS011;29105;57.764;40.952;2023-09-19T06:17:50;11.23;;;1.30;;
43509;SDS011;29105;57.764;40.952;2023-09-19T06:20:16;4.10;;;0.88;;
43509;SDS011;29105;57.764;40.952;2023-09-19T06:22:43;8.15;;;0.93;;
43509;SDS011;29105;57.764;40.952;2023-09-19T06:25:10;5.15;;;1.15;;
43509;SDS011;29105;57.764;40.952;2023-09-19T06:27:38;8.23;;;1.10;;
43509;SDS011;29105;57.764;40.952;2023-09-19T06:30:07;4.57;;;1.27;;
43509;SDS011;29105;57.764;40.952;2023-09-19T06:32:34;6.65;;;1.73;;
43509;SDS011;29105;57.764;40.952;2023-09-19T06:34:59;5.50;;;1.13;;
43509;SDS011;29105;57.764;40.952;2023-09-19T06:37:28;8.00;;;1.67;;
43509;SDS011;29105;57.764;40.952;2023-09-19T06:39:54;3.08;;;1.33;;
43509;SDS011;29105;57.764;40.952;2023-09-19T06:42:22;4.95;;;1.00;;
43509;SDS011;29105;57.764;40.952;2023-09-19T06:44:48;2.83;;;0.85;;
43509;SDS011;29105;57.764;40.952;2023-09-19T06:47:14;3.67;;;1.33;;
43509;SDS011;29105;57.764;40.952;2023-09-19T06:49:41;4.82;;;1.35;;
43509;SDS011;29105;57.764;40.952;2023-09-19T06:52:10;3.20;;;0.82;;
43509;SDS011;29105;57.764;40.952;2023-09-19T06:54:36;4.30;;;0.68;;
43509;SDS011;29105;57.764;40.952;2023-09-19T06:57:03;2.08;;;0.80;;
43509;SDS011;29105;57.764;40.952;2023-09-19T06:59:29;3.25;;;0.70;;
43509;SDS011;29105;57.764;40.952;2023-09-19T07:01:54;9.52;;;1.60;;
43509;SDS011;29105;57.764;40.952;2023-09-19T07:04:20;4.97;;;0.68;;
43509;SDS011;29105;57.764;40.952;2023-09-19T07:06:49;2.40;;;0.82;;
43509;SDS011;29105;57.764;40.952;2023-09-19T07:09:15;1.63;;;0.80;;
43509;SDS011;29105;57.764;40.952;2023-09-19T07:11:42;3.10;;;0.50;;
43509;SDS011;29105;57.764;40.952;2023-09-19T07:14:08;6.68;;;0.63;;
43509;SDS011;29105;57.764;40.952;2023-09-19T07:16:37;3.45;;;1.08;;
43509;SDS011;29105;57.764;40.952;2023-09-19T07:19:04;1.08;;;0.45;;
43509;SDS011;29105;57.764;40.952;2023-09-19T07:21:30;1.10;;;0.50;;
43509;SDS011;29105;57.764;40.952;2023-09-19T07:23:59;1.67;;;0.47;;
43509;SDS011;29105;57.764;40.952;2023-09-19T07:26:26;3.70;;;0.50;;
43509;SDS011;29105;57.764;40.952;2023-09-19T07:28:53;2.25;;;0.40;;
43509;SDS011;29105;57.764;40.952;2023-09-19T07:31:19;0.47;;;0.20;;
43509;SDS011;29105;57.764;40.952;2023-09-19T07:33:45;0.80;;;0.20;;
43509;SDS011;29105;57.764;40.952;2023-09-19T07:36:10;0.50;;;0.20;;
43509;SDS011;29105;57.764;40.952;2023-09-19T07:38:39;1.95;;;0.20;;
43509;SDS011;29105;57.764;40.952;2023-09-19T07:41:07;4.22;;;0.30;;
43509;SDS011;29105;57.764;40.952;2023-09-19T07:43:37;1.85;;;0.35;;
43509;SDS011;29105;57.764;40.952;2023-09-19T07:46:08;2.50;;;0.40;;
43509;SDS011;29105;57.764;40.952;2023-09-19T07:48:37;1.38;;;0.30;;
43509;SDS011;29105;57.764;40.952;2023-09-19T07:51:06;5.68;;;0.55;;
43509;SDS011;29105;57.764;40.952;2023-09-19T07:53:34;0.55;;;0.30;;
43509;SDS011;29105;57.764;40.952;2023-09-19T07:56:04;1.27;;;0.32;;
43509;SDS011;29105;57.764;40.952;2023-09-19T07:58:31;0.73;;;0.20;;
43509;SDS011;29105;57.764;40.952;2023-09-19T08:01:02;1.85;;;0.40;;
43509;SDS011;29105;57.764;40.952;2023-09-19T08:03:32;1.42;;;0.40;;
43509;SDS011;29105;57.764;40.952;2023-09-19T08:05:58;0.85;;;0.35;;
43509;SDS011;29105;57.764;40.952;2023-09-19T08:08:24;0.88;;;0.32;;
43509;SDS011;29105;57.764;40.952;2023-09-19T08:10:54;7.68;;;0.30;;
43509;SDS011;29105;57.764;40.952;2023-09-19T08:13:23;0.70;;;0.28;;
43509;SDS011;29105;57.764;40.952;2023-09-19T08:15:49;2.33;;;0.70;;
43509;SDS011;29105;57.764;40.952;2023-09-19T08:18:19;3.80;;;0.50;;
43509;SDS011;29105;57.764;40.952;2023-09-19T08:20:51;1.88;;;0.68;;
43509;SDS011;29105;57.764;40.952;2023-09-19T08:23:17;1.10;;;0.40;;
43509;SDS011;29105;57.764;40.952;2023-09-19T08:25:45;1.02;;;0.30;;
43509;SDS011;29105;57.764;40.952;2023-09-19T08:28:12;2.17;;;0.70;;
43509;SDS011;29105;57.764;40.952;2023-09-19T08:30:39;1.50;;;0.40;;
43509;SDS011;29105;57.764;40.952;2023-09-19T08:33:06;1.88;;;0.40;;
43509;SDS011;29105;57.764;40.952;2023-09-19T08:35:32;1.92;;;0.45;;
43509;SDS011;29105;57.764;40.952;2023-09-19T08:37:58;3.00;;;0.70;;
43509;SDS011;29105;57.764;40.952;2023-09-19T08:40:32;4.10;;;0.30;;
43509;SDS011;29105;57.764;40.952;2023-09-19T08:42:59;1.35;;;0.50;;
43509;SDS011;29105;57.764;40.952;2023-09-19T08:45:26;2.55;;;0.60;;
43509;SDS011;29105;57.764;40.952;2023-09-19T08:50:43;3.65;;;0.45;;
43509;SDS011;29105;57.764;40.952;2023-09-19T08:53:16;5.80;;;0.60;;
43509;SDS011;29105;57.764;40.952;2023-09-19T08:55:57;2.90;;;0.70;;
43509;SDS011;29105;57.764;40.952;2023-09-19T08:58:28;5.57;;;0.98;;
43509;SDS011;29105;57.764;40.952;2023-09-19T09:00:58;3.38;;;0.22;;
43509;SDS011;29105;57.764;40.952;2023-09-19T09:03:27;0.90;;;0.30;;
43509;SDS011;29105;57.764;40.952;2023-09-19T09:05:56;1.30;;;0.30;;
43509;SDS011;29105;57.764;40.952;2023-09-19T09:08:24;2.13;;;0.40;;
43509;SDS011;29105;57.764;40.952;2023-09-19T09:10:51;1.27;;;0.28;;
43509;SDS011;29105;57.764;40.952;2023-09-19T09:13:17;2.25;;;0.32;;
43509;SDS011;29105;57.764;40.952;2023-09-19T09:15:43;2.17;;;0.40;;
43509;SDS011;29105;57.764;40.952;2023-09-19T09:18:10;3.60;;;0.73;;
43509;SDS011;29105;57.764;40.952;2023-09-19T09:20:36;1.40;;;0.47;;
43509;SDS011;29105;57.764;40.952;2023-09-19T09:23:01;1.40;;;0.20;;
43509;SDS011;29105;57.764;40.952;2023-09-19T09:28:21;1.60;;;0.20;;
43509;SDS011;29105;57.764;40.952;2023-09-19T09:30:47;4.85;;;0.88;;
43509;SDS011;29105;57.764;40.952;2023-09-19T09:33:13;2.20;;;0.30;;
43509;SDS011;29105;57.764;40.952;2023-09-19T09:36:14;1.60;;;0.20;;
43509;SDS011;29105;57.764;40.952;2023-09-19T09:38:43;0.98;;;0.30;;
43509;SDS011;29105;57.764;40.952;2023-09-19T09:41:11;1.30;;;0.20;;
43509;SDS011;29105;57.764;40.952;2023-09-19T09:43:42;1.52;;;0.32;;
43509;SDS011;29105;57.764;40.952;2023-09-19T09:46:20;0.88;;;0.10;;
43509;SDS011;29105;57.764;40.952;2023-09-19T09:48:56;0.38;;;0.13;;
43509;SDS011;29105;57.764;40.952;2023-09-19T09:51:50;1.48;;;0.28;;
43509;SDS011;29105;57.764;40.952;2023-09-19T09:54:23;2.35;;;0.20;;
43509;SDS011;29105;57.764;40.952;2023-09-19T09:56:59;0.82;;;0.13;;
43509;SDS011;29105;57.764;40.952;2023-09-19T09:59:52;2.35;;;0.20;;
43509;SDS011;29105;57.764;40.952;2023-09-19T10:02:22;1.35;;;0.28;;
43509;SDS011;29105;57.764;40.952;2023-09-19T10:04:58;1.30;;;0.30;;
43509;SDS011;29105;57.764;40.952;2023-09-19T10:07:48;3.38;;;0.35;;
43509;SDS011;29105;57.764;40.952;2023-09-19T10:13:18;0.77;;;0.20;;
43509;SDS011;29105;57.764;40.952;2023-09-19T10:15:47;0.80;;;0.30;;
43509;SDS011;29105;57.764;40.952;2023-09-19T10:18:21;2.80;;;0.30;;
43509;SDS011;29105;57.764;40.952;2023-09-19T10:20:53;0.98;;;0.20;;
43509;SDS011;29105;57.764;40.952;2023-09-19T10:23:20;0.65;;;0.20;;
43509;SDS011;29105;57.764;40.952;2023-09-19T10:25:51;0.93;;;0.22;;
43509;SDS011;29105;57.764;40.952;2023-09-19T10:28:18;4.70;;;0.28;;
43509;SDS011;29105;57.764;40.952;2023-09-19T10:30:48;0.80;;;0.40;;
43509;SDS011;29105;57.764;40.952;2023-09-19T10:33:24;0.93;;;0.20;;
43509;SDS011;29105;57.764;40.952;2023-09-19T10:35:56;2.13;;;0.32;;
43509;SDS011;29105;57.764;40.952;2023-09-19T10:38:25;2.25;;;0.28;;
43509;SDS011;29105;57.764;40.952;2023-09-19T10:40:56;7.35;;;0.77;;
43509;SDS011;29105;57.764;40.952;2023-09-19T10:43:26;1.10;;;0.30;;
43509;SDS011;29105;57.764;40.952;2023-09-19T10:45:56;0.90;;;0.38;;
43509;SDS011;29105;57.764;40.952;2023-09-19T10:48:26;1.58;;;0.20;;
43509;SDS011;29105;57.764;40.952;2023-09-19T10:51:12;4.68;;;0.45;;
43509;SDS011;29105;57.764;40.952;2023-09-19T10:56:23;0.70;;;0.30;;
43509;SDS011;29105;57.764;40.952;2023-09-19T11:01:52;0.40;;;0.10;;
43509;SDS011;29105;57.764;40.952;2023-09-19T11:07:05;1.95;;;0.30;;
43509;SDS011;29105;57.764;40.952;2023-09-19T11:09:50;0.75;;;0.20;;
43509;SDS011;29105;57.764;40.952;2023-09-19T11:15:02;0.93;;;0.40;;
43509;SDS011;29105;57.764;40.952;2023-09-19T11:17:33;3.78;;;0.17;;
43509;SDS011;29105;57.764;40.952;2023-09-19T11:30:32;2.53;;;0.20;;
43509;SDS011;29105;57.764;40.952;2023-09-19T11:46:30;0.52;;;0.20;;
43509;SDS011;29105;57.764;40.952;2023-09-19T11:49:04;3.03;;;0.30;;
43509;SDS011;29105;57.764;40.952;2023-09-19T11:51:41;2.55;;;0.20;;
43509;SDS011;29105;57.764;40.952;2023-09-19T11:54:12;1.90;;;0.40;;
43509;SDS011;29105;57.764;40.952;2023-09-19T11:56:43;0.73;;;0.22;;
43509;SDS011;29105;57.764;40.952;2023-09-19T11:59:10;0.57;;;0.10;;
43509;SDS011;29105;57.764;40.952;2023-09-19T12:01:37;5.45;;;0.52;;
43509;SDS011;29105;57.764;40.952;2023-09-19T12:06:34;3.22;;;0.20;;
43509;SDS011;29105;57.764;40.952;2023-09-19T12:09:00;1.20;;;0.20;;
43509;SDS011;29105;57.764;40.952;2023-09-19T12:11:31;3.08;;;0.30;;
43509;SDS011;29105;57.764;40.952;2023-09-19T12:13:58;4.53;;;0.40;;
43509;SDS011;29105;57.764;40.952;2023-09-19T12:16:26;0.95;;;0.17;;
43509;SDS011;29105;57.764;40.952;2023-09-19T12:18:55;0.75;;;0.28;;
43509;SDS011;29105;57.764;40.952;2023-09-19T12:23:58;2.58;;;0.30;;
43509;SDS011;29105;57.764;40.952;2023-09-19T12:26:26;0.47;;;0.17;;
43509;SDS011;29105;57.764;40.952;2023-09-19T12:28:54;2.95;;;0.20;;
43509;SDS011;29105;57.764;40.952;2023-09-19T12:31:21;0.43;;;0.20;;
43509;SDS011;29105;57.764;40.952;2023-09-19T12:33:52;2.05;;;0.32;;
43509;SDS011;29105;57.764;40.952;2023-09-19T12:36:23;0.98;;;0.20;;
43509;SDS011;29105;57.764;40.952;2023-09-19T12:38:55;3.45;;;0.38;;
43509;SDS011;29105;57.764;40.952;2023-09-19T12:41:27;2.47;;;0.20;;
43509;SDS011;29105;57.764;40.952;2023-09-19T12:43:53;4.93;;;0.50;;
43509;SDS011;29105;57.764;40.952;2023-09-19T12:46:22;3.20;;;0.40;;
43509;SDS011;29105;57.764;40.952;2023-09-19T12:49:14;4.20;;;0.30;;
43509;SDS011;29105;57.764;40.952;2023-09-19T12:51:43;0.52;;;0.20;;
43509;SDS011;29105;57.764;40.952;2023-09-19T12:54:09;2.55;;;0.20;;
43509;SDS011;29105;57.764;40.952;2023-09-19T12:56:41;0.88;;;0.30;;
43509;SDS011;29105;57.764;40.952;2023-09-19T12:59:13;1.13;;;0.28;;
43509;SDS011;29105;57.764;40.952;2023-09-19T13:01:39;0.98;;;0.30;;
43509;SDS011;29105;57.764;40.952;2023-09-19T13:06:48;2.47;;;0.40;;
43509;SDS011;29105;57.764;40.952;2023-09-19T13:09:19;1.05;;;0.30;;
43509;SDS011;29105;57.764;40.952;2023-09-19T13:11:45;3.28;;;0.30;;
43509;SDS011;29105;57.764;40.952;2023-09-19T13:14:17;2.45;;;0.30;;
43509;SDS011;29105;57.764;40.952;2023-09-19T13:16:55;0.55;;;0.20;;
43509;SDS011;29105;57.764;40.952;2023-09-19T13:20:01;3.72;;;0.40;;
43509;SDS011;29105;57.764;40.952;2023-09-19T13:22:38;1.63;;;0.50;;
43509;SDS011;29105;57.764;40.952;2023-09-19T13:25:20;3.25;;;0.60;;
43509;SDS011;29105;57.764;40.952;2023-09-19T13:27:48;4.78;;;0.22;;
43509;SDS011;29105;57.764;40.952;2023-09-19T13:30:24;3.17;;;0.30;;
43509;SDS011;29105;57.764;40.952;2023-09-19T13:32:51;5.60;;;0.73;;
43509;SDS011;29105;57.764;40.952;2023-09-19T13:35:19;4.00;;;0.60;;
43509;SDS011;29105;57.764;40.952;2023-09-19T13:37:47;8.43;;;1.02;;
43509;SDS011;29105;57.764;40.952;2023-09-19T13:40:14;1.95;;;0.50;;
43509;SDS011;29105;57.764;40.952;2023-09-19T13:42:41;3.70;;;0.90;;
43509;SDS011;29105;57.764;40.952;2023-09-19T13:45:07;3.60;;;0.50;;
43509;SDS011;29105;57.764;40.952;2023-09-19T13:47:38;2.13;;;0.20;;
43509;SDS011;29105;57.764;40.952;2023-09-19T13:50:04;3.50;;;0.63;;
43509;SDS011;29105;57.764;40.952;2023-09-19T13:52:30;3.25;;;0.57;;
43509;SDS011;29105;57.764;40.952;2023-09-19T13:54:57;3.55;;;0.47;;
43509;SDS011;29105;57.764;40.952;2023-09-19T13:57:23;2.50;;;0.63;;
43509;SDS011;29105;57.764;40.952;2023-09-19T13:59:49;2.60;;;1.10;;
43509;SDS011;29105;57.764;40.952;2023-09-19T14:02:16;7.00;;;1.20;;
43509;SDS011;29105;57.764;40.952;2023-09-19T14:04:44;3.92;;;0.73;;
43509;SDS011;29105;57.764;40.952;2023-09-19T14:07:10;5.13;;;1.35;;
43509;SDS011;29105;57.764;40.952;2023-09-19T14:09:36;5.90;;;1.30;;
43509;SDS011;29105;57.764;40.952;2023-09-19T14:12:03;7.07;;;1.73;;
43509;SDS011;29105;57.764;40.952;2023-09-19T14:14:28;3.95;;;1.17;;
43509;SDS011;29105;57.764;40.952;2023-09-19T14:16:54;5.55;;;0.45;;
43509;SDS011;29105;57.764;40.952;2023-09-19T14:19:20;3.67;;;0.73;;
43509;SDS011;29105;57.764;40.952;2023-09-19T14:21:46;3.67;;;0.45;;
43509;SDS011;29105;57.764;40.952;2023-09-19T14:24:16;7.88;;;0.60;;
43509;SDS011;29105;57.764;40.952;2023-09-19T14:26:43;2.88;;;0.82;;
43509;SDS011;29105;57.764;40.952;2023-09-19T14:29:09;4.72;;;0.82;;
43509;SDS011;29105;57.764;40.952;2023-09-19T14:31:37;1.63;;;0.30;;
43509;SDS011;29105;57.764;40.952;2023-09-19T14:34:05;4.10;;;0.60;;
43509;SDS011;29105;57.764;40.952;2023-09-19T14:36:31;6.30;;;0.70;;
43509;SDS011;29105;57.764;40.952;2023-09-19T14:38:58;2.47;;;0.63;;
43509;SDS011;29105;57.764;40.952;2023-09-19T14:41:24;1.88;;;0.52;;
43509;SDS011;29105;57.764;40.952;2023-09-19T14:43:51;5.35;;;1.10;;
43509;SDS011;29105;57.764;40.952;2023-09-19T14:46:17;6.03;;;0.98;;
43509;SDS011;29105;57.764;40.952;2023-09-19T14:48:43;2.60;;;0.80;;
43509;SDS011;29105;57.764;40.952;2023-09-19T14:51:12;9.90;;;1.13;;
43509;SDS011;29105;57.764;40.952;2023-09-19T14:53:39;2.95;;;0.70;;
43509;SDS011;29105;57.764;40.952;2023-09-19T14:56:09;1.13;;;0.50;;
43509;SDS011;29105;57.764;40.952;2023-09-19T14:58:36;2.90;;;0.57;;
43509;SDS011;29105;57.764;40.952;2023-09-19T15:03:31;5.72;;;0.70;;
43509;SDS011;29105;57.764;40.952;2023-09-19T15:06:01;1.02;;;0.50;;
43509;SDS011;29105;57.764;40.952;2023-09-19T15:08:27;3.55;;;0.70;;
43509;SDS011;29105;57.764;40.952;2023-09-19T15:10:53;2.67;;;0.70;;
43509;SDS011;29105;57.764;40.952;2023-09-19T15:13:19;9.80;;;1.48;;
43509;SDS011;29105;57.764;40.952;2023-09-19T15:15:45;4.70;;;1.02;;
43509;SDS011;29105;57.764;40.952;2023-09-19T15:18:13;2.53;;;0.47;;
43509;SDS011;29105;57.764;40.952;2023-09-19T15:20:45;3.53;;;0.30;;
43509;SDS011;29105;57.764;40.952;2023-09-19T15:23:11;5.43;;;0.70;;
43509;SDS011;29105;57.764;40.952;2023-09-19T15:25:38;6.05;;;1.15;;
43509;SDS011;29105;57.764;40.952;2023-09-19T15:28:05;2.63;;;0.50;;
43509;SDS011;29105;57.764;40.952;2023-09-19T15:30:39;4.50;;;0.60;;
43509;SDS011;29105;57.764;40.952;2023-09-19T15:33:05;2.80;;;0.75;;
43509;SDS011;29105;57.764;40.952;2023-09-19T15:35:30;2.80;;;0.70;;
43509;SDS011;29105;57.764;40.952;2023-09-19T15:37:56;3.25;;;0.70;;
43509;SDS011;29105;57.764;40.952;2023-09-19T15:40:24;3.10;;;1.23;;
43509;SDS011;29105;57.764;40.952;2023-09-19T15:42:50;4.50;;;0.70;;
43509;SDS011;29105;57.764;40.952;2023-09-19T15:45:16;1.63;;;0.90;;
43509;SDS011;29105;57.764;40.952;2023-09-19T15:47:44;3.20;;;1.05;;